sensor_id;sensor_type;location;lat;lon;timestamp;P1;durP1;ratioP1;P2;durP2;ratioP2
78183;SDS011;67442;44.570;18.610;2023-04-01T00:00:11;19.13;;;9.70;;
78183;SDS011;67442;44.570;18.610;2023-04-01T00:02:41;18.55;;;9.43;;
78183;SDS011;67442;44.570;18.610;2023-04-01T00:05:13;18.58;;;9.30;;
78183;SDS011;67442;44.570;18.610;2023-04-01T00:07:42;16.90;;;8.65;;
78183;SDS011;67442;44.570;18.610;2023-04-01T00:10:10;15.70;;;8.45;;
78183;SDS011;67442;44.570;18.610;2023-04-01T00:12:39;17.70;;;9.25;;
78183;SDS011;67442;44.570;18.610;2023-04-01T00:15:06;16.70;;;9.02;;
78183;SDS011;67442;44.570;18.610;2023-04-01T00:17:35;17.73;;;9.98;;
78183;SDS011;67442;44.570;18.610;2023-04-01T00:20:02;15.05;;;8.32;;
78183;SDS011;67442;44.570;18.610;2023-04-01T00:22:31;16.60;;;8.82;;
78183;SDS011;67442;44.570;18.610;2023-04-01T00:24:59;16.17;;;8.60;;
78183;SDS011;67442;44.570;18.610;2023-04-01T00:27:26;19.58;;;9.80;;
78183;SDS011;67442;44.570;18.610;2023-04-01T00:29:53;19.23;;;8.73;;
78183;SDS011;67442;44.570;18.610;2023-04-01T00:32:20;17.45;;;9.05;;
78183;SDS011;67442;44.570;18.610;2023-04-01T00:34:49;18.05;;;9.27;;
78183;SDS011;67442;44.570;18.610;2023-04-01T00:37:17;15.60;;;8.50;;
78183;SDS011;67442;44.570;18.610;2023-04-01T00:39:49;14.20;;;8.18;;
78183;SDS011;67442;44.570;18.610;2023-04-01T00:42:15;17.08;;;8.48;;
78183;SDS011;67442;44.570;18.610;2023-04-01T00:44:50;15.50;;;7.93;;
78183;SDS011;67442;44.570;18.610;2023-04-01T00:47:18;15.05;;;8.10;;
78183;SDS011;67442;44.570;18.610;2023-04-01T00:49:51;16.50;;;8.45;;
78183;SDS011;67442;44.570;18.610;2023-04-01T00:52:22;18.15;;;8.73;;
78183;SDS011;67442;44.570;18.610;2023-04-01T00:54:52;16.30;;;8.27;;
78183;SDS011;67442;44.570;18.610;2023-04-01T00:57:28;17.10;;;8.85;;
78183;SDS011;67442;44.570;18.610;2023-04-01T00:59:58;16.98;;;8.13;;
78183;SDS011;67442;44.570;18.610;2023-04-01T01:02:29;19.40;;;8.23;;
78183;SDS011;67442;44.570;18.610;2023-04-01T01:05:02;15.98;;;7.85;;
78183;SDS011;67442;44.570;18.610;2023-04-01T01:10:20;18.02;;;8.52;;
78183;SDS011;67442;44.570;18.610;2023-04-01T01:13:01;18.58;;;8.70;;
78183;SDS011;67442;44.570;18.610;2023-04-01T01:15:46;14.35;;;8.40;;
78183;SDS011;67442;44.570;18.610;2023-04-01T01:18:27;16.80;;;8.45;;
78183;SDS011;67442;44.570;18.610;2023-04-01T01:21:16;16.43;;;8.63;;
78183;SDS011;67442;44.570;18.610;2023-04-01T01:37:18;15.93;;;8.88;;
78183;SDS011;67442;44.570;18.610;2023-04-01T01:39:58;13.60;;;8.02;;
78183;SDS011;67442;44.570;18.610;2023-04-01T01:42:27;16.08;;;8.20;;
78183;SDS011;67442;44.570;18.610;2023-04-01T01:44:58;18.58;;;9.10;;
78183;SDS011;67442;44.570;18.610;2023-04-01T01:47:28;15.25;;;8.48;;
78183;SDS011;67442;44.570;18.610;2023-04-01T01:49:56;15.55;;;8.05;;
78183;SDS011;67442;44.570;18.610;2023-04-01T01:52:26;18.40;;;8.13;;
78183;SDS011;67442;44.570;18.610;2023-04-01T01:54:57;14.25;;;7.80;;
78183;SDS011;67442;44.570;18.610;2023-04-01T01:57:34;12.05;;;6.78;;
78183;SDS011;67442;44.570;18.610;2023-04-01T02:00:07;13.32;;;7.88;;
78183;SDS011;67442;44.570;18.610;2023-04-01T02:02:50;16.45;;;8.02;;
78183;SDS011;67442;44.570;18.610;2023-04-01T02:05:19;14.18;;;7.88;;
78183;SDS011;67442;44.570;18.610;2023-04-01T02:07:51;14.60;;;7.90;;
78183;SDS011;67442;44.570;18.610;2023-04-01T02:10:49;14.68;;;7.82;;
78183;SDS011;67442;44.570;18.610;2023-04-01T02:13:29;15.18;;;8.05;;
78183;SDS011;67442;44.570;18.610;2023-04-01T02:19:03;14.77;;;8.10;;
78183;SDS011;67442;44.570;18.610;2023-04-01T02:21:35;14.63;;;7.53;;
78183;SDS011;67442;44.570;18.610;2023-04-01T02:24:05;13.27;;;6.82;;
78183;SDS011;67442;44.570;18.610;2023-04-01T02:26:36;12.07;;;6.80;;
78183;SDS011;67442;44.570;18.610;2023-04-01T02:29:03;14.13;;;7.50;;
78183;SDS011;67442;44.570;18.610;2023-04-01T02:31:34;13.98;;;8.00;;
78183;SDS011;67442;44.570;18.610;2023-04-01T02:34:04;13.50;;;7.47;;
78183;SDS011;67442;44.570;18.610;2023-04-01T02:36:32;15.18;;;7.72;;
78183;SDS011;67442;44.570;18.610;2023-04-01T02:39:04;14.25;;;8.15;;
78183;SDS011;67442;44.570;18.610;2023-04-01T02:41:38;14.43;;;8.00;;
78183;SDS011;67442;44.570;18.610;2023-04-01T02:44:06;14.68;;;7.68;;
78183;SDS011;67442;44.570;18.610;2023-04-01T02:46:34;14.27;;;7.15;;
78183;SDS011;67442;44.570;18.610;2023-04-01T02:49:02;11.48;;;7.00;;
78183;SDS011;67442;44.570;18.610;2023-04-01T02:51:33;12.20;;;7.25;;
78183;SDS011;67442;44.570;18.610;2023-04-01T02:54:00;12.13;;;6.88;;
78183;SDS011;67442;44.570;18.610;2023-04-01T02:56:31;12.45;;;7.07;;
78183;SDS011;67442;44.570;18.610;2023-04-01T02:58:58;12.45;;;7.00;;
78183;SDS011;67442;44.570;18.610;2023-04-01T03:01:25;17.50;;;7.95;;
78183;SDS011;67442;44.570;18.610;2023-04-01T03:03:52;12.98;;;6.80;;
78183;SDS011;67442;44.570;18.610;2023-04-01T03:06:24;13.23;;;6.95;;
78183;SDS011;67442;44.570;18.610;2023-04-01T03:08:51;13.30;;;6.75;;
78183;SDS011;67442;44.570;18.610;2023-04-01T03:11:17;14.10;;;6.90;;
78183;SDS011;67442;44.570;18.610;2023-04-01T03:13:45;15.02;;;7.55;;
78183;SDS011;67442;44.570;18.610;2023-04-01T03:16:16;13.25;;;6.38;;
78183;SDS011;67442;44.570;18.610;2023-04-01T03:18:43;13.20;;;7.60;;
78183;SDS011;67442;44.570;18.610;2023-04-01T03:23:45;13.70;;;7.43;;
78183;SDS011;67442;44.570;18.610;2023-04-01T03:26:12;15.15;;;7.03;;
78183;SDS011;67442;44.570;18.610;2023-04-01T03:28:39;14.10;;;7.22;;
78183;SDS011;67442;44.570;18.610;2023-04-01T03:31:07;13.38;;;7.43;;
78183;SDS011;67442;44.570;18.610;2023-04-01T03:33:35;10.77;;;6.43;;
78183;SDS011;67442;44.570;18.610;2023-04-01T03:36:02;13.25;;;7.00;;
78183;SDS011;67442;44.570;18.610;2023-04-01T03:38:34;13.40;;;7.13;;
78183;SDS011;67442;44.570;18.610;2023-04-01T03:41:01;10.75;;;6.45;;
78183;SDS011;67442;44.570;18.610;2023-04-01T03:43:28;12.20;;;6.90;;
78183;SDS011;67442;44.570;18.610;2023-04-01T03:45:55;12.00;;;6.97;;
78183;SDS011;67442;44.570;18.610;2023-04-01T03:48:26;13.95;;;7.40;;
78183;SDS011;67442;44.570;18.610;2023-04-01T03:50:57;12.48;;;6.85;;
78183;SDS011;67442;44.570;18.610;2023-04-01T03:53:24;10.73;;;6.45;;
78183;SDS011;67442;44.570;18.610;2023-04-01T03:55:52;11.02;;;6.10;;
78183;SDS011;67442;44.570;18.610;2023-04-01T03:58:23;9.85;;;6.43;;
78183;SDS011;67442;44.570;18.610;2023-04-01T04:00:51;12.05;;;6.75;;
78183;SDS011;67442;44.570;18.610;2023-04-01T04:03:18;12.35;;;6.55;;
78183;SDS011;67442;44.570;18.610;2023-04-01T04:05:46;11.20;;;6.80;;
78183;SDS011;67442;44.570;18.610;2023-04-01T04:08:14;13.52;;;6.22;;
78183;SDS011;67442;44.570;18.610;2023-04-01T04:10:41;11.50;;;6.50;;
78183;SDS011;67442;44.570;18.610;2023-04-01T04:13:09;12.27;;;6.68;;
78183;SDS011;67442;44.570;18.610;2023-04-01T04:15:36;12.55;;;6.70;;
78183;SDS011;67442;44.570;18.610;2023-04-01T04:18:04;11.65;;;6.13;;
78183;SDS011;67442;44.570;18.610;2023-04-01T04:20:31;11.85;;;6.97;;
78183;SDS011;67442;44.570;18.610;2023-04-01T04:22:59;12.00;;;6.25;;
78183;SDS011;67442;44.570;18.610;2023-04-01T04:25:26;13.65;;;6.70;;
78183;SDS011;67442;44.570;18.610;2023-04-01T04:27:54;11.63;;;6.45;;
78183;SDS011;67442;44.570;18.610;2023-04-01T04:30:21;10.25;;;5.82;;
78183;SDS011;67442;44.570;18.610;2023-04-01T04:32:52;11.40;;;6.30;;
78183;SDS011;67442;44.570;18.610;2023-04-01T04:35:19;11.45;;;6.75;;
78183;SDS011;67442;44.570;18.610;2023-04-01T04:37:47;11.05;;;6.40;;
78183;SDS011;67442;44.570;18.610;2023-04-01T04:40:14;11.88;;;6.22;;
78183;SDS011;67442;44.570;18.610;2023-04-01T04:42:42;10.20;;;6.22;;
78183;SDS011;67442;44.570;18.610;2023-04-01T04:45:09;10.23;;;6.18;;
78183;SDS011;67442;44.570;18.610;2023-04-01T04:47:38;12.23;;;6.50;;
78183;SDS011;67442;44.570;18.610;2023-04-01T04:50:05;11.48;;;5.78;;
78183;SDS011;67442;44.570;18.610;2023-04-01T04:52:35;12.57;;;6.72;;
78183;SDS011;67442;44.570;18.610;2023-04-01T04:55:02;10.32;;;6.55;;
78183;SDS011;67442;44.570;18.610;2023-04-01T04:57:30;11.80;;;6.25;;
78183;SDS011;67442;44.570;18.610;2023-04-01T04:59:57;11.05;;;6.53;;
78183;SDS011;67442;44.570;18.610;2023-04-01T05:02:24;11.40;;;6.68;;
78183;SDS011;67442;44.570;18.610;2023-04-01T05:04:51;13.27;;;6.82;;
78183;SDS011;67442;44.570;18.610;2023-04-01T05:07:19;12.25;;;6.57;;
78183;SDS011;67442;44.570;18.610;2023-04-01T05:09:50;12.98;;;7.18;;
78183;SDS011;67442;44.570;18.610;2023-04-01T05:12:17;13.40;;;6.28;;
78183;SDS011;67442;44.570;18.610;2023-04-01T05:14:47;12.48;;;6.38;;
78183;SDS011;67442;44.570;18.610;2023-04-01T05:17:15;11.68;;;6.82;;
78183;SDS011;67442;44.570;18.610;2023-04-01T05:19:42;12.23;;;6.30;;
78183;SDS011;67442;44.570;18.610;2023-04-01T05:22:09;11.10;;;6.10;;
78183;SDS011;67442;44.570;18.610;2023-04-01T05:24:40;13.07;;;6.57;;
78183;SDS011;67442;44.570;18.610;2023-04-01T05:27:08;12.00;;;6.35;;
78183;SDS011;67442;44.570;18.610;2023-04-01T05:29:35;14.30;;;6.65;;
78183;SDS011;67442;44.570;18.610;2023-04-01T05:32:02;12.18;;;6.80;;
78183;SDS011;67442;44.570;18.610;2023-04-01T05:34:29;10.77;;;6.45;;
78183;SDS011;67442;44.570;18.610;2023-04-01T05:36:56;13.52;;;6.78;;
78183;SDS011;67442;44.570;18.610;2023-04-01T05:39:27;12.30;;;6.60;;
78183;SDS011;67442;44.570;18.610;2023-04-01T05:41:54;13.10;;;6.63;;
78183;SDS011;67442;44.570;18.610;2023-04-01T05:44:20;8.98;;;5.75;;
78183;SDS011;67442;44.570;18.610;2023-04-01T05:46:48;10.55;;;6.03;;
78183;SDS011;67442;44.570;18.610;2023-04-01T05:49:15;12.73;;;6.45;;
78183;SDS011;67442;44.570;18.610;2023-04-01T05:51:43;11.10;;;6.43;;
78183;SDS011;67442;44.570;18.610;2023-04-01T05:54:10;11.80;;;6.45;;
78183;SDS011;67442;44.570;18.610;2023-04-01T05:56:38;10.20;;;5.95;;
78183;SDS011;67442;44.570;18.610;2023-04-01T05:59:05;11.52;;;6.30;;
78183;SDS011;67442;44.570;18.610;2023-04-01T06:01:33;10.30;;;6.07;;
78183;SDS011;67442;44.570;18.610;2023-04-01T06:04:04;12.88;;;5.75;;
78183;SDS011;67442;44.570;18.610;2023-04-01T06:06:35;10.60;;;6.10;;
78183;SDS011;67442;44.570;18.610;2023-04-01T06:09:13;11.68;;;6.65;;
78183;SDS011;67442;44.570;18.610;2023-04-01T06:14:31;11.93;;;5.90;;
78183;SDS011;67442;44.570;18.610;2023-04-01T06:28:05;10.88;;;6.05;;
78183;SDS011;67442;44.570;18.610;2023-04-01T06:30:43;11.35;;;6.47;;
78183;SDS011;67442;44.570;18.610;2023-04-01T06:37:22;12.68;;;6.30;;
78183;SDS011;67442;44.570;18.610;2023-04-01T06:39:39;11.48;;;6.47;;
78183;SDS011;67442;44.570;18.610;2023-04-01T06:42:23;12.05;;;6.47;;
78183;SDS011;67442;44.570;18.610;2023-04-01T06:50:48;9.35;;;5.32;;
78183;SDS011;67442;44.570;18.610;2023-04-01T06:53:38;12.13;;;5.90;;
78183;SDS011;67442;44.570;18.610;2023-04-01T06:56:19;9.27;;;5.28;;
78183;SDS011;67442;44.570;18.610;2023-04-01T06:58:50;11.35;;;5.75;;
78183;SDS011;67442;44.570;18.610;2023-04-01T07:01:40;10.07;;;5.80;;
78183;SDS011;67442;44.570;18.610;2023-04-01T07:04:29;9.85;;;5.50;;
78183;SDS011;67442;44.570;18.610;2023-04-01T07:06:59;10.15;;;5.53;;
78183;SDS011;67442;44.570;18.610;2023-04-01T07:09:38;13.02;;;5.60;;
78183;SDS011;67442;44.570;18.610;2023-04-01T07:12:12;10.27;;;5.43;;
78183;SDS011;67442;44.570;18.610;2023-04-01T07:14:47;9.20;;;5.00;;
78183;SDS011;67442;44.570;18.610;2023-04-01T07:17:20;11.90;;;5.25;;
78183;SDS011;67442;44.570;18.610;2023-04-01T07:20:01;8.98;;;5.22;;
78183;SDS011;67442;44.570;18.610;2023-04-01T07:22:59;9.63;;;5.40;;
78183;SDS011;67442;44.570;18.610;2023-04-01T07:25:38;8.82;;;5.47;;
78183;SDS011;67442;44.570;18.610;2023-04-01T07:28:11;10.02;;;5.35;;
78183;SDS011;67442;44.570;18.610;2023-04-01T07:33:50;10.93;;;5.50;;
78183;SDS011;67442;44.570;18.610;2023-04-01T07:39:20;8.95;;;5.03;;
78183;SDS011;67442;44.570;18.610;2023-04-01T07:41:54;10.10;;;5.32;;
78183;SDS011;67442;44.570;18.610;2023-04-01T07:44:51;9.45;;;4.88;;
78183;SDS011;67442;44.570;18.610;2023-04-01T07:47:41;8.40;;;5.28;;
78183;SDS011;67442;44.570;18.610;2023-04-01T07:55:14;8.73;;;4.95;;
78183;SDS011;67442;44.570;18.610;2023-04-01T08:03:47;8.38;;;5.00;;
78183;SDS011;67442;44.570;18.610;2023-04-01T08:06:32;11.48;;;4.90;;
78183;SDS011;67442;44.570;18.610;2023-04-01T08:15:06;8.65;;;5.13;;
78183;SDS011;67442;44.570;18.610;2023-04-01T08:34:28;10.07;;;5.53;;
78183;SDS011;67442;44.570;18.610;2023-04-01T08:37:01;9.00;;;5.25;;
78183;SDS011;67442;44.570;18.610;2023-04-01T08:39:37;8.70;;;4.88;;
78183;SDS011;67442;44.570;18.610;2023-04-01T08:48:27;11.18;;;5.22;;
78183;SDS011;67442;44.570;18.610;2023-04-01T08:56:51;17.98;;;6.88;;
78183;SDS011;67442;44.570;18.610;2023-04-01T09:52:14;17.23;;;6.93;;
78183;SDS011;67442;44.570;18.610;2023-04-01T11:32:50;12.73;;;4.10;;
78183;SDS011;67442;44.570;18.610;2023-04-01T12:00:35;10.57;;;3.80;;
78183;SDS011;67442;44.570;18.610;2023-04-01T12:03:43;5.22;;;2.90;;
78183;SDS011;67442;44.570;18.610;2023-04-01T12:29:57;6.63;;;3.08;;
78183;SDS011;67442;44.570;18.610;2023-04-01T12:38:40;6.93;;;3.25;;
78183;SDS011;67442;44.570;18.610;2023-04-01T12:41:45;6.68;;;3.10;;
78183;SDS011;67442;44.570;18.610;2023-04-01T13:27:04;6.80;;;3.55;;
78183;SDS011;67442;44.570;18.610;2023-04-01T13:29:52;4.72;;;2.38;;
78183;SDS011;67442;44.570;18.610;2023-04-01T13:37:54;6.13;;;3.05;;
78183;SDS011;67442;44.570;18.610;2023-04-01T13:43:42;4.85;;;2.50;;
78183;SDS011;67442;44.570;18.610;2023-04-01T13:52:29;6.38;;;2.88;;
78183;SDS011;67442;44.570;18.610;2023-04-01T14:00:25;5.25;;;2.50;;
78183;SDS011;67442;44.570;18.610;2023-04-01T14:03:37;3.47;;;2.10;;
78183;SDS011;67442;44.570;18.610;2023-04-01T14:12:20;6.05;;;2.58;;
78183;SDS011;67442;44.570;18.610;2023-04-01T14:20:38;4.78;;;2.50;;
78183;SDS011;67442;44.570;18.610;2023-04-01T14:23:13;5.23;;;2.50;;
78183;SDS011;67442;44.570;18.610;2023-04-01T14:50:17;9.60;;;4.30;;
78183;SDS011;67442;44.570;18.610;2023-04-01T14:58:12;7.90;;;3.80;;
78183;SDS011;67442;44.570;18.610;2023-04-01T15:05:55;9.43;;;3.88;;
78183;SDS011;67442;44.570;18.610;2023-04-01T15:08:45;9.13;;;3.22;;
78183;SDS011;67442;44.570;18.610;2023-04-01T15:11:25;9.30;;;4.28;;
78183;SDS011;67442;44.570;18.610;2023-04-01T15:14:22;10.02;;;4.22;;
78183;SDS011;67442;44.570;18.610;2023-04-01T15:23:11;7.95;;;4.20;;
78183;SDS011;67442;44.570;18.610;2023-04-01T15:26:01;7.30;;;3.63;;
78183;SDS011;67442;44.570;18.610;2023-04-01T15:28:59;10.52;;;4.45;;
78183;SDS011;67442;44.570;18.610;2023-04-01T15:42:54;5.90;;;3.03;;
78183;SDS011;67442;44.570;18.610;2023-04-01T15:46:24;6.15;;;3.22;;
78183;SDS011;67442;44.570;18.610;2023-04-01T15:48:47;7.90;;;3.83;;
78183;SDS011;67442;44.570;18.610;2023-04-01T15:59:06;6.93;;;3.35;;
78183;SDS011;67442;44.570;18.610;2023-04-01T16:02:07;8.10;;;3.80;;
78183;SDS011;67442;44.570;18.610;2023-04-01T16:04:50;7.57;;;4.07;;
78183;SDS011;67442;44.570;18.610;2023-04-01T16:10:30;6.30;;;3.60;;
78183;SDS011;67442;44.570;18.610;2023-04-01T16:26:55;7.00;;;3.70;;
78183;SDS011;67442;44.570;18.610;2023-04-01T16:32:44;7.70;;;3.55;;
78183;SDS011;67442;44.570;18.610;2023-04-01T16:38:20;7.85;;;4.70;;
78183;SDS011;67442;44.570;18.610;2023-04-01T16:43:51;7.80;;;4.38;;
78183;SDS011;67442;44.570;18.610;2023-04-01T16:57:01;6.05;;;3.63;;
78183;SDS011;67442;44.570;18.610;2023-04-01T16:59:47;5.97;;;3.65;;
78183;SDS011;67442;44.570;18.610;2023-04-01T17:02:35;7.00;;;3.42;;
78183;SDS011;67442;44.570;18.610;2023-04-01T17:05:13;6.80;;;3.47;;
78183;SDS011;67442;44.570;18.610;2023-04-01T17:10:37;5.72;;;3.35;;
78183;SDS011;67442;44.570;18.610;2023-04-01T17:16:10;4.95;;;2.83;;
78183;SDS011;67442;44.570;18.610;2023-04-01T17:30:28;4.70;;;2.50;;
78183;SDS011;67442;44.570;18.610;2023-04-01T17:35:52;4.93;;;2.47;;
78183;SDS011;67442;44.570;18.610;2023-04-01T17:41:46;2.90;;;2.08;;
78183;SDS011;67442;44.570;18.610;2023-04-01T17:49:41;4.88;;;2.60;;
78183;SDS011;67442;44.570;18.610;2023-04-01T17:52:19;4.40;;;2.65;;
78183;SDS011;67442;44.570;18.610;2023-04-01T17:58:34;3.95;;;2.50;;
78183;SDS011;67442;44.570;18.610;2023-04-01T18:07:05;4.03;;;2.28;;
78183;SDS011;67442;44.570;18.610;2023-04-01T18:23:20;4.22;;;2.78;;
78183;SDS011;67442;44.570;18.610;2023-04-01T18:26:46;6.65;;;3.17;;
78183;SDS011;67442;44.570;18.610;2023-04-01T18:37:51;4.78;;;3.00;;
78183;SDS011;67442;44.570;18.610;2023-04-01T18:40:30;4.40;;;2.67;;
78183;SDS011;67442;44.570;18.610;2023-04-01T18:49:13;5.10;;;3.10;;
78183;SDS011;67442;44.570;18.610;2023-04-01T18:52:13;5.65;;;3.40;;
78183;SDS011;67442;44.570;18.610;2023-04-01T19:00:37;5.45;;;2.92;;
78183;SDS011;67442;44.570;18.610;2023-04-01T19:05:59;5.88;;;3.28;;
78183;SDS011;67442;44.570;18.610;2023-04-01T19:08:35;5.03;;;3.10;;
78183;SDS011;67442;44.570;18.610;2023-04-01T19:11:09;4.60;;;2.95;;
78183;SDS011;67442;44.570;18.610;2023-04-01T19:25:01;4.47;;;2.50;;
78183;SDS011;67442;44.570;18.610;2023-04-01T19:27:50;6.10;;;3.10;;
78183;SDS011;67442;44.570;18.610;2023-04-01T19:30:46;4.17;;;2.60;;
78183;SDS011;67442;44.570;18.610;2023-04-01T19:38:52;4.35;;;2.92;;
78183;SDS011;67442;44.570;18.610;2023-04-01T20:00:41;4.55;;;3.05;;
78183;SDS011;67442;44.570;18.610;2023-04-01T20:03:38;5.00;;;2.78;;
78183;SDS011;67442;44.570;18.610;2023-04-01T20:06:22;5.45;;;3.33;;
78183;SDS011;67442;44.570;18.610;2023-04-01T20:42:28;5.55;;;3.22;;
78183;SDS011;67442;44.570;18.610;2023-04-01T20:51:19;4.47;;;3.03;;
78183;SDS011;67442;44.570;18.610;2023-04-01T20:57:03;6.78;;;3.45;;
78183;SDS011;67442;44.570;18.610;2023-04-01T21:16:51;6.30;;;3.85;;
78183;SDS011;67442;44.570;18.610;2023-04-01T21:36:47;10.13;;;5.28;;
78183;SDS011;67442;44.570;18.610;2023-04-01T21:48:01;13.43;;;6.22;;
78183;SDS011;67442;44.570;18.610;2023-04-01T21:50:55;11.90;;;6.47;;
78183;SDS011;67442;44.570;18.610;2023-04-01T22:05:43;12.13;;;6.20;;
78183;SDS011;67442;44.570;18.610;2023-04-01T22:11:02;13.00;;;6.60;;
78183;SDS011;67442;44.570;18.610;2023-04-01T22:16:36;10.97;;;6.20;;
78183;SDS011;67442;44.570;18.610;2023-04-01T22:27:01;13.75;;;7.32;;
78183;SDS011;67442;44.570;18.610;2023-04-01T22:40:38;12.70;;;6.23;;
78183;SDS011;67442;44.570;18.610;2023-04-01T22:43:36;13.65;;;6.57;;
78183;SDS011;67442;44.570;18.610;2023-04-01T22:48:45;11.52;;;6.50;;
78183;SDS011;67442;44.570;18.610;2023-04-01T23:06:01;12.88;;;6.78;;
78183;SDS011;67442;44.570;18.610;2023-04-01T23:11:27;14.18;;;7.05;;
78183;SDS011;67442;44.570;18.610;2023-04-01T23:17:09;11.93;;;6.38;;
78183;SDS011;67442;44.570;18.610;2023-04-01T23:26:26;10.75;;;6.15;;
78183;SDS011;67442;44.570;18.610;2023-04-01T23:28:53;13.57;;;6.55;;
78183;SDS011;67442;44.570;18.610;2023-04-01T23:31:44;11.80;;;6.35;;
78183;SDS011;67442;44.570;18.610;2023-04-01T23:36:45;9.80;;;5.55;;
78183;SDS011;67442;44.570;18.610;2023-04-01T23:39:38;13.90;;;6.05;;
78183;SDS011;67442;44.570;18.610;2023-04-01T23:44:45;9.82;;;5.60;;
78183;SDS011;67442;44.570;18.610;2023-04-01T23:50:18;12.25;;;5.95;;
78183;SDS011;67442;44.570;18.610;2023-04-01T23:52:51;12.00;;;6.00;;
78183;SDS011;67442;44.570;18.610;2023-04-01T23:55:22;14.88;;;6.35;;
